createdAt,value
2022-07-27T00:01:25.022Z,19.90
2022-07-27T00:03:53.841Z,19.10
2022-07-27T00:06:23.172Z,20.00
2022-07-27T00:08:53.418Z,17.50
2022-07-27T00:11:22.188Z,19.90
2022-07-27T00:13:50.779Z,16.80
2022-07-27T00:16:19.518Z,20.00
2022-07-27T00:18:48.231Z,17.30
2022-07-27T00:21:16.893Z,20.00
2022-07-27T00:23:45.615Z,20.00
2022-07-27T00:26:16.170Z,20.00
2022-07-27T00:28:44.794Z,20.00
2022-07-27T00:31:13.664Z,19.90
2022-07-27T00:33:42.601Z,19.80
2022-07-27T00:36:12.319Z,19.60
2022-07-27T00:38:41.231Z,19.60
2022-07-27T00:41:10.002Z,19.10
2022-07-27T00:43:58.412Z,18.50
2022-07-27T00:46:29.233Z,18.00
2022-07-27T00:48:58.006Z,18.40
2022-07-27T00:51:27.868Z,18.40
2022-07-27T00:53:58.075Z,19.30
2022-07-27T00:56:27.322Z,18.70
2022-07-27T00:58:58.455Z,19.20
2022-07-27T01:01:27.101Z,19.30
2022-07-27T01:03:57.152Z,17.60
2022-07-27T01:06:34.329Z,18.10
2022-07-27T01:09:31.382Z,18.20
2022-07-27T01:12:02.288Z,19.20
2022-07-27T01:14:33.635Z,16.10
2022-07-27T01:17:02.307Z,17.70
2022-07-27T01:19:31.169Z,18.30
2022-07-27T01:22:02.006Z,18.80
2022-07-27T01:24:30.875Z,18.90
2022-07-27T01:27:00.417Z,18.80
2022-07-27T01:29:29.362Z,17.70
2022-07-27T01:31:58.523Z,18.50
2022-07-27T01:34:27.839Z,17.80
2022-07-27T01:36:56.636Z,16.60
2022-07-27T01:39:26.819Z,16.50
2022-07-27T01:41:55.517Z,18.60
2022-07-27T01:44:24.163Z,18.30
2022-07-27T01:46:53.106Z,18.80
2022-07-27T01:49:21.954Z,18.80
2022-07-27T01:51:50.778Z,17.50
2022-07-27T01:54:19.371Z,17.60
2022-07-27T01:56:49.517Z,16.10
2022-07-27T01:59:18.207Z,18.70
2022-07-27T02:01:47.566Z,16.50
2022-07-27T02:04:18.389Z,18.70
2022-07-27T02:06:47.375Z,18.70
2022-07-27T02:09:15.998Z,16.60
2022-07-27T02:12:02.065Z,18.60
2022-07-27T02:14:32.344Z,18.60
2022-07-27T02:17:00.995Z,18.50
2022-07-27T02:19:31.181Z,18.50
2022-07-27T02:21:59.923Z,18.20
2022-07-27T02:24:29.254Z,16.40
2022-07-27T02:26:57.852Z,15.10
2022-07-27T02:29:26.496Z,16.70
2022-07-27T02:31:56.482Z,17.00
2022-07-27T02:34:25.164Z,16.40
2022-07-27T02:36:54.123Z,18.60
2022-07-27T02:39:22.843Z,15.90
2022-07-27T02:41:51.433Z,18.40
2022-07-27T02:44:20.355Z,16.40
2022-07-27T02:46:49.069Z,16.60
2022-07-27T02:49:19.250Z,18.30
2022-07-27T02:51:51.829Z,18.20
2022-07-27T02:54:20.757Z,18.20
2022-07-27T02:56:50.328Z,18.30
2022-07-27T02:59:19.316Z,16.30
2022-07-27T03:01:48.847Z,18.30
2022-07-27T03:04:20.221Z,17.10
2022-07-27T03:06:48.911Z,18.20
2022-07-27T03:09:17.406Z,18.50
2022-07-27T03:11:46.035Z,17.80
2022-07-27T03:14:14.604Z,16.50
2022-07-27T03:16:43.965Z,18.60
2022-07-27T03:19:13.437Z,16.50
2022-07-27T03:21:43.797Z,18.60
2022-07-27T03:24:12.500Z,18.60
2022-07-27T03:26:41.217Z,16.50
2022-07-27T03:29:10.336Z,17.10
2022-07-27T03:31:39.011Z,18.30
2022-07-27T03:34:09.827Z,18.30
2022-07-27T03:36:38.430Z,17.00
2022-07-27T03:39:09.373Z,18.30
2022-07-27T03:41:38.113Z,18.40
2022-07-27T03:44:07.063Z,15.40
2022-07-27T03:46:35.679Z,18.50
2022-07-27T03:49:14.111Z,18.40
2022-07-27T03:51:43.139Z,17.70
2022-07-27T03:54:13.596Z,18.40
2022-07-27T03:56:42.236Z,18.40
2022-07-27T03:59:11.177Z,16.60
2022-07-27T04:01:40.383Z,18.50
2022-07-27T04:04:09.470Z,16.20
2022-07-27T04:06:38.197Z,17.00
2022-07-27T04:09:09.140Z,18.70
2022-07-27T04:11:50.640Z,17.90
2022-07-27T04:14:20.646Z,18.30
2022-07-27T04:16:49.636Z,18.80
2022-07-27T04:19:19.454Z,17.30
2022-07-27T04:21:48.118Z,18.70
2022-07-27T04:24:16.849Z,16.80
2022-07-27T04:26:47.024Z,18.10
2022-07-27T04:29:20.511Z,19.00
2022-07-27T04:31:50.054Z,18.10
2022-07-27T04:34:18.801Z,16.80
2022-07-27T04:36:47.663Z,19.00
2022-07-27T04:39:17.099Z,18.50
2022-07-27T04:41:48.082Z,19.00
2022-07-27T04:44:16.765Z,19.10
2022-07-27T04:46:45.750Z,18.90
2022-07-27T04:49:14.790Z,19.00
2022-07-27T04:51:46.481Z,17.70
2022-07-27T04:54:15.517Z,18.90
2022-07-27T04:56:44.418Z,18.10
2022-07-27T04:59:15.049Z,19.20
2022-07-27T05:01:44.163Z,19.30
2022-07-27T05:04:12.867Z,19.30
2022-07-27T05:06:41.563Z,19.50
2022-07-27T05:09:10.516Z,19.60
2022-07-27T05:11:39.245Z,19.70
2022-07-27T05:14:07.895Z,18.50
2022-07-27T05:16:40.982Z,19.80
2022-07-27T05:19:09.865Z,16.70
2022-07-27T05:21:39.325Z,19.80
2022-07-27T05:24:08.699Z,19.80
2022-07-27T05:26:37.407Z,17.70
2022-07-27T05:29:06.473Z,19.90
2022-07-27T05:31:35.156Z,19.40
2022-07-27T05:34:05.079Z,19.80
2022-07-27T05:36:33.750Z,16.60
2022-07-27T05:39:02.414Z,19.80
2022-07-27T05:41:31.090Z,19.40
2022-07-27T05:43:59.700Z,19.90
2022-07-27T05:46:32.668Z,19.80
2022-07-27T05:49:01.599Z,19.90
2022-07-27T05:51:32.102Z,18.00
2022-07-27T05:54:01.122Z,20.00
2022-07-27T05:56:31.897Z,19.00
2022-07-27T05:59:04.985Z,20.00
2022-07-27T06:01:35.605Z,19.20
2022-07-27T06:04:04.847Z,20.40
2022-07-27T06:06:52.374Z,20.00
2022-07-27T06:09:21.101Z,20.60
2022-07-27T06:11:50.445Z,20.70
2022-07-27T06:14:19.334Z,20.80
2022-07-27T06:16:50.047Z,20.40
2022-07-27T06:19:18.697Z,21.00
2022-07-27T06:21:53.422Z,20.90
2022-07-27T06:24:22.483Z,19.60
2022-07-27T06:26:51.122Z,21.30
2022-07-27T06:29:19.713Z,21.40
2022-07-27T06:31:48.373Z,20.40
2022-07-27T06:34:21.335Z,21.60
2022-07-27T06:36:53.310Z,20.70
2022-07-27T06:39:21.882Z,20.90
2022-07-27T06:41:56.180Z,20.80
2022-07-27T06:44:27.151Z,20.20
2022-07-27T06:46:56.697Z,20.60
2022-07-27T06:49:25.409Z,22.20
2022-07-27T06:51:55.469Z,22.10
2022-07-27T06:54:24.027Z,19.90
2022-07-27T06:56:52.661Z,22.40
2022-07-27T06:59:21.209Z,20.60
2022-07-27T07:01:49.779Z,22.50
2022-07-27T07:04:18.511Z,20.80
2022-07-27T07:06:55.155Z,20.30
2022-07-27T07:09:23.736Z,21.90
2022-07-27T07:11:54.295Z,23.20
2022-07-27T07:14:23.647Z,22.30
2022-07-27T07:16:52.329Z,20.80
2022-07-27T07:19:21.411Z,23.30
2022-07-27T07:21:50.113Z,23.60
2022-07-27T07:24:30.465Z,23.10
2022-07-27T07:26:58.963Z,23.30
2022-07-27T07:29:27.874Z,24.10
2022-07-27T07:31:56.522Z,24.30
2022-07-27T07:34:25.251Z,22.80
2022-07-27T07:36:53.812Z,24.30
2022-07-27T07:39:27.809Z,24.50
2022-07-27T07:41:59.836Z,24.40
2022-07-27T07:44:28.489Z,21.90
2022-07-27T07:46:57.162Z,24.60
2022-07-27T07:49:38.044Z,21.90
2022-07-27T07:52:09.806Z,24.90
2022-07-27T07:54:39.826Z,24.00
2022-07-27T07:57:08.575Z,24.80
2022-07-27T07:59:37.127Z,25.60
2022-07-27T08:02:14.300Z,25.30
2022-07-27T08:04:43.162Z,25.40
2022-07-27T08:07:11.898Z,25.60
2022-07-27T08:09:42.280Z,25.30
2022-07-27T08:12:11.095Z,24.70
2022-07-27T08:14:39.615Z,25.50
2022-07-27T08:17:08.225Z,25.70
2022-07-27T08:19:40.261Z,24.60
2022-07-27T08:22:09.288Z,25.70
2022-07-27T08:24:38.047Z,23.90
2022-07-27T08:27:08.002Z,24.80
2022-07-27T08:29:37.534Z,26.00
2022-07-27T08:32:07.270Z,26.00
2022-07-27T08:34:36.107Z,25.30
2022-07-27T08:37:04.920Z,25.70
2022-07-27T08:40:35.184Z,25.40
2022-07-27T08:42:25.531Z,25.60
2022-07-27T08:44:55.693Z,26.30
2022-07-27T08:47:24.983Z,25.60
2022-07-27T08:49:54.226Z,26.40
2022-07-27T08:52:24.149Z,24.90
2022-07-27T08:54:53.467Z,26.10
2022-07-27T08:57:23.519Z,24.90
2022-07-27T08:59:54.891Z,24.60
2022-07-27T09:02:24.057Z,24.10
2022-07-27T09:04:52.758Z,26.50
2022-07-27T09:07:31.682Z,26.30
2022-07-27T09:10:00.469Z,26.10
2022-07-27T09:12:32.914Z,26.60
2022-07-27T09:15:10.152Z,26.80
2022-07-27T09:17:48.684Z,25.40
2022-07-27T09:20:21.264Z,25.00
2022-07-27T09:22:53.652Z,26.10
2022-07-27T09:25:45.281Z,27.40
2022-07-27T09:28:31.430Z,27.90
2022-07-27T09:31:08.824Z,28.20
2022-07-27T09:33:46.666Z,28.60
2022-07-27T09:36:17.226Z,28.80
2022-07-27T09:39:01.739Z,29.00
2022-07-27T09:41:42.771Z,27.90
2022-07-27T09:47:02.624Z,29.10
2022-07-27T09:49:34.008Z,29.60
2022-07-27T09:52:05.255Z,30.00
2022-07-27T09:54:47.356Z,30.00
2022-07-27T09:57:17.093Z,29.10
2022-07-27T09:59:48.683Z,28.60
2022-07-27T10:02:17.488Z,30.20
2022-07-27T10:04:47.961Z,28.90
2022-07-27T10:07:16.680Z,30.10
2022-07-27T10:09:47.063Z,30.50
2022-07-27T10:12:16.000Z,29.70
2022-07-27T10:14:48.695Z,30.10
2022-07-27T10:17:17.675Z,28.50
2022-07-27T10:19:50.699Z,28.70
2022-07-27T10:22:56.583Z,29.30
2022-07-27T10:25:27.373Z,28.00
2022-07-27T10:28:19.652Z,28.10
2022-07-27T10:30:54.246Z,29.20
2022-07-27T10:33:45.676Z,28.90
2022-07-27T10:36:18.027Z,29.50
2022-07-27T10:38:49.307Z,28.60
2022-07-27T10:41:24.518Z,29.70
2022-07-27T10:44:29.541Z,28.60
2022-07-27T10:47:02.644Z,29.20
2022-07-27T10:49:35.287Z,30.70
2022-07-27T10:52:41.358Z,30.80
2022-07-27T10:55:44.644Z,30.60
2022-07-27T10:58:51.465Z,31.10
2022-07-27T11:01:23.126Z,31.00
2022-07-27T11:03:54.218Z,29.80
2022-07-27T11:06:39.839Z,30.50
2022-07-27T11:12:06.734Z,30.80
2022-07-27T11:14:47.511Z,29.70
2022-07-27T11:17:49.515Z,29.50
2022-07-27T11:20:09.576Z,30.90
2022-07-27T11:25:30.332Z,29.30
2022-07-27T11:27:58.791Z,30.20
2022-07-27T11:30:29.854Z,29.30
2022-07-27T11:32:58.492Z,30.50
2022-07-27T11:35:28.508Z,30.50
2022-07-27T11:38:02.664Z,30.70
2022-07-27T11:40:57.299Z,30.00
2022-07-27T11:43:37.091Z,32.20
2022-07-27T11:46:20.929Z,32.70
2022-07-27T11:49:07.832Z,32.70
2022-07-27T11:51:42.402Z,32.90
2022-07-27T11:54:14.606Z,31.40
2022-07-27T11:56:47.210Z,31.70
2022-07-27T11:59:18.724Z,31.70
2022-07-27T12:01:52.233Z,31.80
2022-07-27T12:04:24.915Z,29.90
2022-07-27T12:07:05.994Z,31.60
2022-07-27T12:09:39.591Z,31.70
2022-07-27T12:12:20.626Z,31.50
2022-07-27T12:14:52.148Z,30.90
2022-07-27T12:17:29.050Z,32.20
2022-07-27T12:20:05.853Z,32.30
2022-07-27T12:22:39.514Z,31.50
2022-07-27T12:25:25.351Z,31.00
2022-07-27T12:27:57.546Z,31.90
2022-07-27T12:30:38.016Z,30.50
2022-07-27T12:33:09.683Z,31.40
2022-07-27T12:35:47.165Z,30.30
2022-07-27T12:38:17.920Z,30.00
2022-07-27T12:40:50.129Z,31.20
2022-07-27T12:43:20.654Z,32.20
2022-07-27T12:45:52.882Z,30.80
2022-07-27T12:48:26.302Z,31.90
2022-07-27T12:51:03.057Z,31.00
2022-07-27T12:53:35.217Z,32.50
2022-07-27T12:56:10.004Z,32.50
2022-07-27T12:58:38.867Z,31.10
2022-07-27T13:01:07.928Z,31.70
2022-07-27T13:03:36.989Z,31.10
2022-07-27T13:06:12.487Z,30.90
2022-07-27T13:08:44.054Z,30.00
2022-07-27T13:11:13.826Z,30.60
2022-07-27T13:13:42.754Z,31.00
2022-07-27T13:16:11.446Z,30.60
2022-07-27T13:18:40.127Z,32.60
2022-07-27T13:21:08.769Z,32.90
2022-07-27T13:23:37.403Z,31.80
2022-07-27T13:26:07.308Z,31.40
2022-07-27T13:28:36.521Z,31.90
2022-07-27T13:31:05.069Z,31.40
2022-07-27T13:33:33.612Z,32.50
2022-07-27T13:36:03.755Z,33.10
2022-07-27T13:38:32.352Z,33.80
2022-07-27T13:41:00.993Z,34.30
2022-07-27T13:43:30.944Z,33.00
2022-07-27T13:45:59.460Z,34.60
2022-07-27T13:48:28.487Z,34.20
2022-07-27T13:50:57.072Z,34.20
2022-07-27T13:53:25.631Z,34.10
2022-07-27T13:55:54.158Z,35.20
2022-07-27T13:58:22.673Z,34.60
2022-07-27T14:00:53.187Z,32.80
2022-07-27T14:03:22.048Z,33.70
2022-07-27T14:05:53.832Z,34.70
2022-07-27T14:08:23.438Z,34.80
2022-07-27T14:10:51.987Z,32.70
2022-07-27T14:13:22.756Z,33.70
2022-07-27T14:15:55.369Z,33.50
2022-07-27T14:18:27.527Z,34.10
2022-07-27T14:20:58.249Z,34.80
2022-07-27T14:23:27.753Z,35.10
2022-07-27T14:25:57.647Z,35.00
2022-07-27T14:28:27.393Z,35.60
2022-07-27T14:30:58.560Z,35.00
2022-07-27T14:33:33.228Z,36.20
2022-07-27T14:36:06.307Z,35.50
2022-07-27T14:38:36.674Z,35.10
2022-07-27T14:41:06.292Z,35.60
2022-07-27T14:43:35.052Z,35.50
2022-07-27T14:46:05.017Z,35.50
2022-07-27T14:49:05.759Z,34.80
2022-07-27T14:51:22.359Z,34.50
2022-07-27T14:53:50.940Z,35.20
2022-07-27T14:56:19.824Z,34.50
2022-07-27T14:58:48.362Z,35.00
2022-07-27T15:01:18.651Z,35.70
2022-07-27T15:03:47.977Z,34.10
2022-07-27T15:06:17.383Z,34.40
2022-07-27T15:08:56.356Z,32.60
2022-07-27T15:11:25.089Z,32.90
2022-07-27T15:13:55.817Z,30.30
2022-07-27T15:16:29.448Z,32.30
2022-07-27T15:18:58.261Z,33.10
2022-07-27T15:21:26.893Z,32.00
2022-07-27T15:23:55.652Z,32.80
2022-07-27T15:26:24.227Z,32.00
2022-07-27T15:28:57.691Z,30.90
2022-07-27T15:31:29.650Z,31.70
2022-07-27T15:33:58.787Z,31.50
2022-07-27T15:36:31.622Z,30.90
2022-07-27T15:39:05.454Z,29.90
2022-07-27T15:41:34.699Z,31.00
2022-07-27T15:44:03.279Z,30.00
2022-07-27T15:46:33.902Z,31.20
2022-07-27T15:49:02.965Z,32.50
2022-07-27T15:51:32.460Z,31.60
2022-07-27T15:54:01.164Z,33.50
2022-07-27T15:56:29.689Z,33.70
2022-07-27T15:58:58.344Z,33.70
2022-07-27T16:01:35.392Z,32.90
2022-07-27T16:04:07.000Z,32.50
2022-07-27T16:06:39.034Z,34.20
2022-07-27T16:09:10.634Z,34.10
2022-07-27T16:11:39.565Z,33.10
2022-07-27T16:14:08.214Z,33.60
2022-07-27T16:16:37.065Z,33.90
2022-07-27T16:19:13.012Z,33.60
2022-07-27T16:21:53.817Z,31.50
2022-07-27T16:24:25.835Z,32.90
2022-07-27T16:26:55.245Z,31.80
2022-07-27T16:29:24.691Z,32.80
2022-07-27T16:31:57.990Z,32.50
2022-07-27T16:34:29.126Z,31.60
2022-07-27T16:36:58.240Z,30.90
2022-07-27T16:39:28.128Z,32.00
2022-07-27T16:41:58.398Z,30.40
2022-07-27T16:44:27.128Z,28.70
2022-07-27T16:46:55.792Z,29.50
2022-07-27T16:49:33.674Z,30.40
2022-07-27T16:52:07.495Z,29.80
2022-07-27T16:54:39.640Z,28.20
2022-07-27T16:57:09.327Z,29.60
2022-07-27T16:59:45.674Z,26.70
2022-07-27T17:02:14.189Z,29.40
2022-07-27T17:04:42.991Z,29.50
2022-07-27T17:07:13.327Z,29.10
2022-07-27T17:09:42.075Z,29.00
2022-07-27T17:12:10.909Z,29.10
2022-07-27T17:14:46.305Z,27.20
2022-07-27T17:17:15.895Z,28.40
2022-07-27T17:19:44.453Z,28.10
2022-07-27T17:22:14.566Z,28.50
2022-07-27T17:24:43.071Z,28.30
2022-07-27T17:27:11.521Z,27.90
2022-07-27T17:29:40.585Z,28.00
2022-07-27T17:32:10.490Z,28.10
2022-07-27T17:34:41.146Z,27.80
2022-07-27T17:37:09.691Z,27.60
2022-07-27T17:39:40.741Z,24.50
2022-07-27T17:42:16.677Z,27.40
2022-07-27T17:44:45.886Z,27.20
2022-07-27T17:47:14.357Z,26.70
2022-07-27T17:49:44.273Z,26.70
2022-07-27T17:52:13.052Z,26.70
2022-07-27T17:54:43.118Z,26.60
2022-07-27T17:57:11.558Z,26.80
2022-07-27T17:59:40.559Z,26.00
2022-07-27T18:02:09.625Z,26.60
2022-07-27T18:04:39.606Z,26.60
2022-07-27T18:07:08.575Z,26.60
2022-07-27T18:09:37.052Z,25.60
2022-07-27T18:12:08.477Z,26.70
2022-07-27T18:14:38.510Z,26.60
2022-07-27T18:17:07.011Z,26.80
2022-07-27T18:19:35.452Z,26.50
2022-07-27T18:22:03.946Z,26.10
2022-07-27T18:24:35.536Z,26.40
2022-07-27T18:27:03.977Z,26.10
2022-07-27T18:29:33.970Z,26.20
2022-07-27T18:32:05.018Z,26.10
2022-07-27T18:34:33.730Z,26.30
2022-07-27T18:37:02.404Z,26.20
2022-07-27T18:39:33.878Z,26.00
2022-07-27T18:42:04.007Z,22.90
2022-07-27T18:44:38.827Z,25.80
2022-07-27T18:47:07.991Z,25.80
2022-07-27T18:49:36.673Z,25.70
2022-07-27T18:52:06.081Z,25.60
2022-07-27T18:54:34.593Z,25.70
2022-07-27T18:57:03.219Z,24.80
2022-07-27T18:59:38.209Z,25.60
2022-07-27T19:02:09.731Z,25.40
2022-07-27T19:04:38.205Z,25.50
2022-07-27T19:07:10.170Z,25.40
2022-07-27T19:09:38.605Z,25.40
2022-07-27T19:12:09.768Z,25.40
2022-07-27T19:14:40.073Z,25.20
2022-07-27T19:17:10.780Z,24.10
2022-07-27T19:19:43.196Z,24.80
2022-07-27T19:22:11.820Z,24.90
2022-07-27T19:24:40.808Z,24.50
2022-07-27T19:27:09.402Z,24.60
2022-07-27T19:29:39.412Z,24.50
2022-07-27T19:32:09.777Z,24.40
2022-07-27T19:34:38.765Z,22.60
2022-07-27T19:37:07.561Z,24.30
2022-07-27T19:39:59.861Z,23.20
2022-07-27T19:42:26.148Z,24.20
2022-07-27T19:44:56.186Z,24.10
2022-07-27T19:47:25.469Z,23.30
2022-07-27T19:49:54.451Z,24.00
2022-07-27T19:52:23.332Z,23.70
2022-07-27T19:54:51.818Z,23.40
2022-07-27T19:57:21.366Z,22.40
2022-07-27T19:59:55.698Z,23.50
2022-07-27T20:02:26.828Z,22.90
2022-07-27T20:04:55.354Z,22.70
2022-07-27T20:07:23.892Z,22.50
2022-07-27T20:09:52.548Z,22.70
2022-07-27T20:12:21.688Z,22.60
2022-07-27T20:14:50.353Z,21.80
2022-07-27T20:17:19.259Z,22.50
2022-07-27T20:19:49.442Z,22.30
2022-07-27T20:22:18.054Z,22.40
2022-07-27T20:24:46.545Z,22.10
2022-07-27T20:27:15.671Z,22.10
2022-07-27T20:29:44.347Z,22.00
2022-07-27T20:32:13.206Z,20.40
2022-07-27T20:34:41.864Z,22.00
2022-07-27T20:37:13.210Z,20.30
2022-07-27T20:39:41.806Z,21.50
2022-07-27T20:42:11.006Z,21.70
2022-07-27T20:44:39.501Z,21.50
2022-07-27T20:47:09.000Z,21.20
2022-07-27T20:49:39.990Z,20.50
2022-07-27T20:52:08.779Z,20.40
2022-07-27T20:54:39.153Z,21.10
2022-07-27T20:57:07.820Z,18.40
2022-07-27T20:59:36.378Z,19.30
2022-07-27T21:02:05.310Z,20.80
2022-07-27T21:04:34.160Z,20.80
2022-07-27T21:07:03.187Z,20.50
2022-07-27T21:09:32.276Z,20.60
2022-07-27T21:12:02.248Z,20.70
2022-07-27T21:14:30.868Z,18.70
2022-07-27T21:16:59.598Z,20.50
2022-07-27T21:19:28.462Z,20.50
2022-07-27T21:21:57.257Z,20.40
2022-07-27T21:24:26.923Z,20.30
2022-07-27T21:26:57.125Z,20.40
2022-07-27T21:29:29.786Z,18.80
2022-07-27T21:32:01.009Z,19.60
2022-07-27T21:34:30.558Z,18.50
2022-07-27T21:37:03.448Z,20.10
2022-07-27T21:39:32.147Z,20.10
2022-07-27T21:42:02.370Z,17.50
2022-07-27T21:44:32.701Z,19.90
2022-07-27T21:47:01.429Z,19.90
2022-07-27T21:49:34.542Z,18.60
2022-07-27T21:52:03.983Z,20.00
2022-07-27T21:54:32.787Z,19.00
2022-07-27T21:57:01.537Z,19.30
2022-07-27T21:59:31.542Z,19.60
2022-07-27T22:02:01.087Z,18.60
2022-07-27T22:04:30.039Z,17.40
2022-07-27T22:06:58.714Z,19.50
2022-07-27T22:09:27.337Z,19.30
2022-07-27T22:11:56.437Z,18.40
2022-07-27T22:14:25.534Z,19.60
2022-07-27T22:16:56.725Z,19.60
2022-07-27T22:19:25.564Z,19.60
2022-07-27T22:21:54.179Z,18.40
2022-07-27T22:24:23.089Z,19.70
2022-07-27T22:26:51.868Z,19.70
2022-07-27T22:29:20.547Z,19.70
2022-07-27T22:31:49.349Z,19.80
2022-07-27T22:34:19.590Z,18.70
2022-07-27T22:36:48.360Z,18.80
2022-07-27T22:39:17.053Z,19.80
2022-07-27T22:41:47.774Z,19.20
2022-07-27T22:44:16.828Z,19.90
2022-07-27T22:46:48.993Z,18.30
2022-07-27T22:49:19.094Z,20.00
2022-07-27T22:51:50.125Z,18.40
2022-07-27T22:54:21.975Z,19.90
2022-07-27T22:56:50.722Z,18.90
2022-07-27T22:59:19.361Z,19.90
2022-07-27T23:01:48.513Z,20.00
2022-07-27T23:04:19.194Z,19.90
2022-07-27T23:06:48.290Z,19.80
2022-07-27T23:09:17.325Z,19.90
2022-07-27T23:11:46.226Z,19.90
2022-07-27T23:14:15.550Z,18.90
2022-07-27T23:16:45.062Z,18.10
2022-07-27T23:19:13.875Z,19.30
2022-07-27T23:21:44.425Z,20.00
2022-07-27T23:24:14.283Z,18.80
2022-07-27T23:26:43.272Z,19.90
2022-07-27T23:29:11.844Z,19.90
2022-07-27T23:31:40.855Z,19.80
2022-07-27T23:34:09.710Z,19.80
2022-07-27T23:36:38.716Z,19.60
2022-07-27T23:39:08.804Z,19.50
2022-07-27T23:41:37.691Z,18.10
2022-07-27T23:44:06.692Z,19.50
2022-07-27T23:46:35.496Z,19.50
2022-07-27T23:49:04.173Z,19.50
2022-07-27T23:51:32.936Z,19.40
2022-07-27T23:54:01.776Z,19.40
2022-07-27T23:56:32.464Z,19.40
2022-07-27T23:59:01.184Z,19.40
